createdAt,value
2023-09-09T00:00:50.788Z,99.90
2023-09-09T00:03:20.391Z,99.90
2023-09-09T00:05:48.578Z,99.90
2023-09-09T00:08:20.424Z,99.90
2023-09-09T00:10:49.465Z,99.90
2023-09-09T00:13:18.002Z,99.90
2023-09-09T00:15:45.980Z,99.90
2023-09-09T00:18:13.982Z,99.90
2023-09-09T00:20:43.482Z,99.90
2023-09-09T00:23:11.435Z,99.90
2023-09-09T00:25:40.062Z,99.90
2023-09-09T00:28:09.383Z,99.90
2023-09-09T00:30:37.411Z,99.90
2023-09-09T00:33:08.713Z,99.90
2023-09-09T00:35:39.902Z,99.90
2023-09-09T00:38:10.354Z,99.90
2023-09-09T00:40:38.459Z,99.90
2023-09-09T00:43:06.432Z,99.90
2023-09-09T00:45:34.648Z,99.90
2023-09-09T00:48:03.139Z,99.90
2023-09-09T00:50:31.604Z,99.90
2023-09-09T00:53:00.011Z,99.90
2023-09-09T00:55:29.611Z,99.90
2023-09-09T00:57:57.563Z,99.90
2023-09-09T01:00:25.514Z,99.90
2023-09-09T01:02:53.974Z,99.90
2023-09-09T01:05:22.268Z,99.90
2023-09-09T01:07:51.429Z,99.90
2023-09-09T01:10:20.641Z,99.90
2023-09-09T01:12:49.927Z,99.90
2023-09-09T01:15:18.378Z,99.90
2023-09-09T01:17:46.583Z,99.90
2023-09-09T01:20:16.052Z,99.90
2023-09-09T01:22:49.760Z,99.90
2023-09-09T01:25:18.514Z,99.90
2023-09-09T01:27:46.509Z,99.90
2023-09-09T01:30:14.982Z,99.90
2023-09-09T01:32:43.078Z,99.90
2023-09-09T01:35:11.304Z,99.90
2023-09-09T01:37:39.244Z,99.90
2023-09-09T01:40:13.470Z,99.90
2023-09-09T01:42:42.272Z,99.90
2023-09-09T01:45:10.839Z,99.90
2023-09-09T01:47:38.833Z,99.90
2023-09-09T01:50:07.965Z,99.90
2023-09-09T01:52:36.057Z,99.90
2023-09-09T01:55:04.046Z,99.90
2023-09-09T01:57:33.400Z,99.90
2023-09-09T02:00:01.490Z,99.90
2023-09-09T02:02:29.485Z,99.90
2023-09-09T02:04:57.540Z,99.90
2023-09-09T02:07:25.781Z,99.90
2023-09-09T02:09:53.688Z,99.90
2023-09-09T02:12:22.491Z,99.90
2023-09-09T02:14:52.024Z,99.90
2023-09-09T02:17:19.962Z,99.90
2023-09-09T02:19:48.024Z,99.90
2023-09-09T02:22:16.055Z,99.90
2023-09-09T02:24:44.189Z,99.90
2023-09-09T02:27:12.223Z,99.90
2023-09-09T02:29:40.598Z,99.90
2023-09-09T02:32:10.144Z,99.90
2023-09-09T02:34:38.218Z,99.90
2023-09-09T02:37:17.992Z,99.90
2023-09-09T02:39:46.512Z,99.90
2023-09-09T02:42:15.934Z,99.90
2023-09-09T02:44:44.587Z,99.90
2023-09-09T02:47:14.811Z,99.90
2023-09-09T02:49:44.911Z,99.90
2023-09-09T02:52:14.777Z,99.90
2023-09-09T02:54:42.926Z,99.90
2023-09-09T02:57:10.844Z,99.90
2023-09-09T02:59:39.334Z,99.90
2023-09-09T03:02:07.380Z,99.90
2023-09-09T03:04:36.660Z,99.90
2023-09-09T03:07:04.811Z,99.90
2023-09-09T03:09:34.432Z,99.90
2023-09-09T03:12:03.923Z,99.90
2023-09-09T03:14:31.914Z,99.90
2023-09-09T03:17:00.767Z,99.90
2023-09-09T03:19:28.773Z,99.90
2023-09-09T03:21:58.706Z,99.90
2023-09-09T03:24:26.990Z,99.90
2023-09-09T03:26:55.616Z,99.90
2023-09-09T03:29:23.724Z,99.90
2023-09-09T03:31:51.732Z,99.90
2023-09-09T03:34:19.836Z,99.90
2023-09-09T03:36:47.938Z,99.90
2023-09-09T03:39:17.274Z,99.90
2023-09-09T03:41:45.216Z,99.90
2023-09-09T03:44:13.373Z,99.90
2023-09-09T03:46:41.464Z,99.90
2023-09-09T03:49:09.455Z,99.90
2023-09-09T03:51:38.632Z,99.90
2023-09-09T03:54:06.822Z,99.90
2023-09-09T03:56:36.175Z,99.90
2023-09-09T03:59:04.213Z,99.90
2023-09-09T04:01:32.221Z,99.90
2023-09-09T04:04:00.297Z,99.90
2023-09-09T04:06:28.613Z,99.90
2023-09-09T04:08:58.440Z,99.90
2023-09-09T04:11:26.647Z,99.90
2023-09-09T04:13:56.202Z,99.90
2023-09-09T04:16:24.168Z,99.90
2023-09-09T04:18:52.169Z,99.90
2023-09-09T04:21:20.412Z,99.90
2023-09-09T04:23:48.448Z,99.90
2023-09-09T04:26:16.493Z,99.90
2023-09-09T04:28:44.646Z,99.90
2023-09-09T04:31:14.065Z,99.90
2023-09-09T04:33:42.095Z,99.90
2023-09-09T04:36:10.347Z,99.90
2023-09-09T04:38:41.394Z,99.90
2023-09-09T04:41:10.859Z,99.90
2023-09-09T04:43:39.234Z,99.90
2023-09-09T04:46:07.512Z,99.90
2023-09-09T04:48:37.043Z,99.90
2023-09-09T04:51:05.037Z,99.90
2023-09-09T04:53:33.027Z,99.90
2023-09-09T04:56:02.167Z,99.90
2023-09-09T04:58:31.899Z,99.90
2023-09-09T05:01:00.464Z,99.90
2023-09-09T05:03:28.565Z,99.90
2023-09-09T05:05:57.872Z,99.90
2023-09-09T05:08:26.050Z,99.90
2023-09-09T05:10:54.025Z,99.90
2023-09-09T05:13:22.266Z,99.90
2023-09-09T05:15:50.195Z,99.90
2023-09-09T05:18:18.180Z,99.90
2023-09-09T05:20:46.429Z,99.90
2023-09-09T05:23:15.947Z,99.90
2023-09-09T05:25:44.406Z,99.90
2023-09-09T05:28:12.449Z,99.90
2023-09-09T05:30:41.184Z,99.90
2023-09-09T05:33:09.300Z,99.90
2023-09-09T05:35:37.337Z,99.90
2023-09-09T05:38:05.566Z,99.90
2023-09-09T05:40:34.841Z,99.90
2023-09-09T05:43:03.053Z,99.90
2023-09-09T05:45:31.192Z,99.90
2023-09-09T05:47:59.439Z,99.90
2023-09-09T05:50:27.808Z,99.90
2023-09-09T05:52:58.985Z,99.90
2023-09-09T05:55:28.941Z,99.90
2023-09-09T05:57:58.658Z,99.90
2023-09-09T06:00:26.604Z,99.90
2023-09-09T06:02:54.694Z,99.90
2023-09-09T06:05:23.040Z,99.90
2023-09-09T06:07:51.024Z,99.90
2023-09-09T06:10:19.155Z,99.90
2023-09-09T06:12:47.344Z,99.90
2023-09-09T06:15:16.869Z,99.90
2023-09-09T06:17:44.822Z,99.90
2023-09-09T06:20:15.297Z,99.90
2023-09-09T06:22:43.276Z,99.90
2023-09-09T06:25:11.246Z,99.90
2023-09-09T06:27:39.262Z,99.90
2023-09-09T06:30:08.498Z,99.90
2023-09-09T06:32:37.842Z,99.90
2023-09-09T06:35:08.249Z,99.90
2023-09-09T06:37:36.219Z,99.90
2023-09-09T06:40:04.586Z,99.90
2023-09-09T06:42:33.101Z,99.90
2023-09-09T06:45:01.409Z,99.90
2023-09-09T06:47:29.348Z,99.90
2023-09-09T06:49:58.734Z,99.90
2023-09-09T06:52:26.624Z,99.90
2023-09-09T06:54:54.547Z,99.90
2023-09-09T06:57:22.622Z,99.90
2023-09-09T06:59:52.345Z,99.90
2023-09-09T07:02:20.417Z,99.90
2023-09-09T07:04:48.744Z,99.90
2023-09-09T07:07:19.217Z,99.90
2023-09-09T07:09:49.116Z,99.90
2023-09-09T07:12:17.142Z,99.90
2023-09-09T07:14:45.084Z,99.90
2023-09-09T07:17:13.242Z,99.90
2023-09-09T07:19:41.144Z,99.90
2023-09-09T07:22:09.425Z,99.90
2023-09-09T07:24:38.918Z,99.90
2023-09-09T07:27:07.094Z,99.90
2023-09-09T07:29:35.188Z,99.90
2023-09-09T07:32:03.980Z,99.90
2023-09-09T07:34:32.140Z,99.90
2023-09-09T07:37:00.318Z,99.90
2023-09-09T07:39:29.300Z,99.90
2023-09-09T07:41:58.604Z,99.90
2023-09-09T07:44:26.570Z,99.90
2023-09-09T07:46:54.660Z,99.90
2023-09-09T07:49:23.089Z,99.90
2023-09-09T07:51:51.368Z,99.90
2023-09-09T07:54:19.413Z,99.90
2023-09-09T07:56:47.411Z,99.90
2023-09-09T07:59:16.741Z,99.90
2023-09-09T08:01:45.798Z,99.90
2023-09-09T08:04:14.098Z,99.90
2023-09-09T08:06:42.363Z,99.90
2023-09-09T08:09:10.419Z,99.90
2023-09-09T08:11:38.491Z,99.90
2023-09-09T08:14:06.572Z,99.90
2023-09-09T08:16:36.210Z,99.90
2023-09-09T08:19:04.766Z,99.90
2023-09-09T08:21:32.842Z,99.90
2023-09-09T08:24:01.826Z,99.90
2023-09-09T08:26:30.984Z,99.90
2023-09-09T08:28:58.936Z,99.90
2023-09-09T08:31:27.372Z,99.90
2023-09-09T08:33:56.741Z,99.90
2023-09-09T08:36:24.715Z,99.90
2023-09-09T08:38:57.967Z,99.90
2023-09-09T08:41:42.868Z,99.90
2023-09-09T08:44:16.999Z,99.90
2023-09-09T08:46:44.984Z,99.90
2023-09-09T08:49:16.099Z,99.90
2023-09-09T08:51:51.315Z,99.90
2023-09-09T08:54:19.406Z,99.90
2023-09-09T08:56:47.934Z,99.90
2023-09-09T08:59:16.344Z,99.90
2023-09-09T09:01:45.649Z,99.90
2023-09-09T09:04:18.115Z,99.90
2023-09-09T09:06:49.336Z,99.90
2023-09-09T09:09:17.897Z,99.90
2023-09-09T09:11:46.451Z,99.90
2023-09-09T09:14:14.678Z,99.90
2023-09-09T09:16:43.456Z,99.90
2023-09-09T09:19:22.741Z,99.90
2023-09-09T09:21:51.917Z,99.90
2023-09-09T09:24:23.387Z,99.90
2023-09-09T09:26:51.385Z,99.90
2023-09-09T09:29:19.486Z,99.90
2023-09-09T09:31:52.962Z,99.90
2023-09-09T09:34:23.492Z,99.90
2023-09-09T09:36:51.702Z,99.90
2023-09-09T09:39:21.170Z,99.90
2023-09-09T09:41:50.019Z,99.90
2023-09-09T09:44:22.211Z,99.90
2023-09-09T09:47:04.702Z,99.90
2023-09-09T09:49:42.641Z,99.90
2023-09-09T09:52:11.160Z,99.90
2023-09-09T09:54:40.013Z,99.90
2023-09-09T09:57:08.413Z,99.90
2023-09-09T09:59:39.300Z,99.90
2023-09-09T10:02:07.600Z,99.90
2023-09-09T10:04:43.317Z,99.90
2023-09-09T10:07:13.690Z,99.90
2023-09-09T10:09:47.207Z,99.90
2023-09-09T10:12:29.834Z,99.90
2023-09-09T10:15:07.957Z,99.90
2023-09-09T10:17:37.635Z,99.90
2023-09-09T10:20:09.808Z,99.90
2023-09-09T10:22:38.730Z,99.90
2023-09-09T10:25:08.489Z,99.90
2023-09-09T10:27:37.636Z,99.90
2023-09-09T10:30:09.256Z,99.90
2023-09-09T10:32:37.941Z,99.90
2023-09-09T10:35:09.101Z,99.90
2023-09-09T10:37:39.632Z,99.90
2023-09-09T10:40:10.671Z,99.90
2023-09-09T10:42:40.427Z,99.90
2023-09-09T10:45:25.057Z,99.90
2023-09-09T10:47:55.866Z,99.90
2023-09-09T10:50:25.453Z,99.90
2023-09-09T10:53:14.069Z,99.90
2023-09-09T10:55:42.542Z,99.90
2023-09-09T10:58:11.381Z,99.90
2023-09-09T11:00:41.583Z,99.90
2023-09-09T11:03:13.561Z,99.90
2023-09-09T11:06:06.451Z,99.90
2023-09-09T11:08:39.641Z,99.90
2023-09-09T11:11:13.610Z,99.90
2023-09-09T11:13:43.872Z,99.90
2023-09-09T11:16:26.853Z,99.90
2023-09-09T11:18:55.430Z,99.90
2023-09-09T11:21:25.556Z,99.90
2023-09-09T11:23:54.290Z,99.90
2023-09-09T11:26:23.250Z,99.90
2023-09-09T11:28:51.641Z,99.90
2023-09-09T11:31:20.149Z,99.90
2023-09-09T11:33:48.337Z,99.90
2023-09-09T11:36:19.974Z,99.90
2023-09-09T11:38:49.403Z,99.90
2023-09-09T11:41:21.691Z,99.90
2023-09-09T11:44:02.805Z,99.90
2023-09-09T11:46:34.559Z,99.90
2023-09-09T11:49:02.746Z,99.90
2023-09-09T11:51:34.270Z,99.90
2023-09-09T11:54:04.085Z,99.90
2023-09-09T11:56:34.057Z,99.90
2023-09-09T11:59:07.711Z,99.90
2023-09-09T12:01:43.447Z,99.90
2023-09-09T12:04:12.373Z,99.90
2023-09-09T12:06:41.558Z,99.90
2023-09-09T12:09:11.358Z,99.90
2023-09-09T12:11:42.156Z,99.90
2023-09-09T12:14:11.674Z,99.90
2023-09-09T12:16:41.395Z,99.90
2023-09-09T12:19:14.733Z,99.90
2023-09-09T12:21:47.455Z,99.90
2023-09-09T12:24:17.405Z,99.90
2023-09-09T12:26:53.746Z,99.90
2023-09-09T12:29:22.996Z,99.90
2023-09-09T12:31:55.873Z,99.90
2023-09-09T12:34:26.384Z,99.90
2023-09-09T12:36:59.052Z,99.90
2023-09-09T12:39:30.662Z,99.90
2023-09-09T12:42:02.602Z,99.90
2023-09-09T12:44:33.525Z,99.90
2023-09-09T12:47:05.466Z,99.90
2023-09-09T12:49:35.517Z,99.90
2023-09-09T12:52:04.160Z,99.90
2023-09-09T12:54:34.175Z,99.90
2023-09-09T12:57:02.519Z,99.90
2023-09-09T12:59:31.094Z,99.60
2023-09-09T13:02:00.119Z,99.90
2023-09-09T13:04:28.596Z,99.90
2023-09-09T13:06:57.479Z,99.90
2023-09-09T13:09:25.607Z,99.90
2023-09-09T13:11:55.568Z,99.80
2023-09-09T13:14:26.622Z,99.90
2023-09-09T13:16:55.837Z,99.30
2023-09-09T13:19:27.724Z,99.90
2023-09-09T13:21:57.967Z,99.90
2023-09-09T13:24:25.990Z,99.90
2023-09-09T13:26:55.333Z,99.20
2023-09-09T13:29:23.397Z,98.90
2023-09-09T13:31:51.530Z,98.00
2023-09-09T13:34:19.752Z,98.50
2023-09-09T13:36:47.824Z,99.40
2023-09-09T13:39:15.902Z,98.80
2023-09-09T13:41:44.130Z,99.30
2023-09-09T13:44:13.623Z,99.30
2023-09-09T13:46:41.732Z,99.10
2023-09-09T13:49:09.909Z,99.30
2023-09-09T13:51:37.876Z,97.50
2023-09-09T13:54:06.313Z,98.90
2023-09-09T13:56:34.372Z,98.20
2023-09-09T13:59:02.298Z,99.10
2023-09-09T14:01:31.734Z,99.80
2023-09-09T14:03:59.797Z,99.00
2023-09-09T14:06:29.387Z,98.10
2023-09-09T14:08:57.406Z,98.80
2023-09-09T14:11:25.644Z,99.30
2023-09-09T14:13:53.613Z,99.80
2023-09-09T14:16:21.721Z,99.40
2023-09-09T14:18:51.112Z,99.90
2023-09-09T14:21:20.295Z,99.90
2023-09-09T14:23:48.537Z,99.60
2023-09-09T14:26:17.822Z,99.70
2023-09-09T14:28:45.849Z,99.90
2023-09-09T14:31:14.114Z,99.90
2023-09-09T14:33:42.303Z,99.90
2023-09-09T14:36:11.635Z,99.90
2023-09-09T14:38:40.018Z,99.90
2023-09-09T14:41:08.382Z,99.90
2023-09-09T14:43:36.282Z,99.90
2023-09-09T14:46:04.534Z,99.90
2023-09-09T14:48:37.277Z,99.90
2023-09-09T14:51:05.641Z,99.90
2023-09-09T14:53:35.266Z,99.90
2023-09-09T14:56:03.427Z,99.90
2023-09-09T14:58:31.492Z,99.90
2023-09-09T15:00:59.432Z,99.90
2023-09-09T15:03:27.351Z,99.90
2023-09-09T15:05:55.380Z,99.90
2023-09-09T15:08:23.323Z,99.90
2023-09-09T15:10:52.590Z,99.90
2023-09-09T15:13:20.622Z,99.90
2023-09-09T15:15:48.588Z,99.90
2023-09-09T15:18:16.783Z,99.90
2023-09-09T15:20:44.921Z,99.90
2023-09-09T15:23:12.881Z,99.90
2023-09-09T15:25:40.918Z,99.90
2023-09-09T15:28:10.423Z,99.90
2023-09-09T15:30:38.328Z,99.90
2023-09-09T15:33:06.703Z,99.90
2023-09-09T15:35:34.854Z,99.90
2023-09-09T15:38:02.760Z,99.90
2023-09-09T15:40:30.692Z,99.90
2023-09-09T15:42:58.775Z,99.90
2023-09-09T15:45:30.681Z,99.90
2023-09-09T15:47:58.776Z,99.90
2023-09-09T15:50:26.779Z,99.90
2023-09-09T15:52:54.821Z,99.90
2023-09-09T15:55:22.916Z,99.90
2023-09-09T15:57:50.835Z,99.90
2023-09-09T16:00:19.229Z,99.90
2023-09-09T16:02:50.253Z,99.90
2023-09-09T16:05:18.372Z,99.90
2023-09-09T16:07:46.340Z,99.90
2023-09-09T16:10:14.472Z,99.90
2023-09-09T16:12:42.559Z,99.90
2023-09-09T16:15:11.059Z,99.90
2023-09-09T16:17:39.060Z,99.90
2023-09-09T16:20:09.692Z,99.90
2023-09-09T16:22:39.815Z,99.90
2023-09-09T16:25:08.743Z,99.90
2023-09-09T16:27:36.982Z,99.90
2023-09-09T16:30:07.062Z,99.90
2023-09-09T16:32:36.049Z,99.90
2023-09-09T16:35:04.511Z,99.90
2023-09-09T16:37:35.154Z,99.90
2023-09-09T16:40:03.398Z,99.90
2023-09-09T16:42:31.589Z,99.90
2023-09-09T16:44:59.557Z,99.90
2023-09-09T16:47:27.648Z,99.90
2023-09-09T16:49:55.644Z,99.90
2023-09-09T16:52:23.692Z,99.90
2023-09-09T16:54:53.105Z,99.90
2023-09-09T16:57:21.039Z,99.90
2023-09-09T16:59:48.968Z,99.90
2023-09-09T17:02:17.036Z,99.90
2023-09-09T17:04:45.045Z,99.90
2023-09-09T17:07:12.962Z,99.90
2023-09-09T17:09:41.284Z,99.90
2023-09-09T17:12:10.747Z,99.90
2023-09-09T17:14:38.648Z,99.90
2023-09-09T17:17:07.817Z,99.90
2023-09-09T17:19:37.686Z,99.90
2023-09-09T17:22:06.285Z,99.90
2023-09-09T17:24:34.510Z,99.90
2023-09-09T17:27:02.908Z,99.90
2023-09-09T17:29:32.260Z,99.90
2023-09-09T17:32:02.869Z,99.90
2023-09-09T17:34:39.755Z,99.90
2023-09-09T17:37:08.171Z,99.90
2023-09-09T17:39:36.261Z,99.90
2023-09-09T17:42:04.318Z,99.90
2023-09-09T17:44:33.718Z,99.90
2023-09-09T17:47:01.809Z,99.90
2023-09-09T17:49:29.828Z,99.90
2023-09-09T17:51:57.905Z,99.90
2023-09-09T17:54:26.981Z,99.90
2023-09-09T17:56:55.977Z,99.90
2023-09-09T17:59:24.086Z,99.90
2023-09-09T18:01:53.651Z,99.90
2023-09-09T18:04:21.764Z,99.90
2023-09-09T18:06:49.959Z,99.90
2023-09-09T18:09:18.047Z,99.90
2023-09-09T18:11:45.958Z,99.90
2023-09-09T18:14:13.986Z,99.90
2023-09-09T18:16:42.017Z,99.90
2023-09-09T18:19:11.508Z,99.90
2023-09-09T18:21:39.619Z,99.90
2023-09-09T18:24:08.247Z,99.90
2023-09-09T18:26:36.194Z,99.90
2023-09-09T18:29:04.280Z,99.90
2023-09-09T18:31:32.709Z,99.90
2023-09-09T18:34:02.680Z,99.90
2023-09-09T18:36:32.431Z,99.90
2023-09-09T18:39:00.746Z,99.90
2023-09-09T18:41:29.082Z,99.90
2023-09-09T18:43:57.654Z,99.90
2023-09-09T18:46:26.224Z,99.90
2023-09-09T18:48:54.548Z,99.90
2023-09-09T18:51:23.590Z,99.90
2023-09-09T18:53:52.925Z,99.90
2023-09-09T18:56:20.874Z,99.90
2023-09-09T18:58:49.458Z,99.90
2023-09-09T19:01:20.107Z,99.90
2023-09-09T19:03:48.181Z,99.90
2023-09-09T19:06:16.347Z,99.90
2023-09-09T19:08:44.639Z,99.90
2023-09-09T19:11:14.839Z,99.90
2023-09-09T19:13:42.930Z,99.90
2023-09-09T19:16:10.861Z,99.90
2023-09-09T19:18:39.004Z,99.90
2023-09-09T19:21:07.362Z,99.90
2023-09-09T19:23:35.433Z,99.90
2023-09-09T19:26:05.056Z,99.90
2023-09-09T19:28:35.156Z,99.90
2023-09-09T19:31:03.648Z,99.90
2023-09-09T19:33:31.864Z,99.90
2023-09-09T19:35:59.949Z,99.90
2023-09-09T19:38:28.166Z,99.90
2023-09-09T19:40:56.362Z,99.90
2023-09-09T19:43:24.765Z,99.90
2023-09-09T19:45:54.082Z,99.90
2023-09-09T19:48:22.075Z,99.90
2023-09-09T19:50:50.471Z,99.90
2023-09-09T19:53:19.613Z,99.90
2023-09-09T19:55:48.931Z,99.90
2023-09-09T19:58:17.011Z,99.90
2023-09-09T20:00:47.069Z,99.90
2023-09-09T20:03:16.401Z,99.90
2023-09-09T20:05:50.004Z,99.90
2023-09-09T20:08:17.907Z,99.90
2023-09-09T20:10:46.237Z,99.90
2023-09-09T20:13:15.576Z,99.90
2023-09-09T20:15:43.513Z,99.90
2023-09-09T20:18:11.638Z,99.90
2023-09-09T20:20:41.975Z,99.90
2023-09-09T20:23:11.092Z,99.90
2023-09-09T20:25:39.794Z,99.90
2023-09-09T20:28:08.046Z,99.90
2023-09-09T20:30:36.541Z,99.90
2023-09-09T20:33:07.051Z,99.90
2023-09-09T20:35:36.875Z,99.90
2023-09-09T20:38:06.381Z,99.90
2023-09-09T20:40:34.601Z,99.90
2023-09-09T20:43:03.304Z,99.90
2023-09-09T20:45:31.478Z,99.90
2023-09-09T20:47:59.563Z,99.90
2023-09-09T20:50:30.015Z,99.90
2023-09-09T20:52:58.417Z,99.90
2023-09-09T20:55:27.839Z,99.90
2023-09-09T20:57:56.345Z,99.90
2023-09-09T21:00:24.697Z,99.90
2023-09-09T21:02:52.995Z,99.90
2023-09-09T21:05:22.203Z,99.90
2023-09-09T21:07:50.393Z,99.90
2023-09-09T21:10:19.755Z,99.90
2023-09-09T21:12:49.503Z,99.90
2023-09-09T21:15:18.735Z,99.90
2023-09-09T21:17:47.478Z,99.90
2023-09-09T21:20:15.559Z,99.90
2023-09-09T21:22:43.571Z,99.90
2023-09-09T21:25:11.730Z,99.90
2023-09-09T21:27:40.168Z,99.90
2023-09-09T21:30:10.340Z,99.90
2023-09-09T21:32:38.882Z,99.90
2023-09-09T21:35:07.440Z,99.90
2023-09-09T21:37:35.563Z,99.90
2023-09-09T21:40:03.987Z,99.90
2023-09-09T21:42:32.296Z,99.90
2023-09-09T21:45:00.219Z,99.90
2023-09-09T21:47:29.686Z,99.90
2023-09-09T21:49:57.894Z,99.90
2023-09-09T21:52:26.504Z,99.90
2023-09-09T21:54:54.700Z,99.90
2023-09-09T21:57:23.105Z,99.90
2023-09-09T21:59:51.299Z,99.90
2023-09-09T22:02:19.234Z,99.90
2023-09-09T22:04:48.610Z,99.90
2023-09-09T22:07:16.948Z,99.90
2023-09-09T22:09:45.275Z,99.90
2023-09-09T22:12:13.542Z,99.90
2023-09-09T22:14:41.557Z,99.90
2023-09-09T22:17:09.825Z,99.90
2023-09-09T22:19:38.349Z,99.90
2023-09-09T22:22:07.791Z,99.90
2023-09-09T22:24:35.711Z,99.90
2023-09-09T22:27:03.872Z,99.90
2023-09-09T22:29:32.177Z,99.90
2023-09-09T22:32:00.393Z,99.90
2023-09-09T22:34:28.663Z,99.90
2023-09-09T22:36:57.703Z,99.90
2023-09-09T22:39:27.021Z,99.90
2023-09-09T22:41:54.941Z,99.90
2023-09-09T22:44:23.173Z,99.90
2023-09-09T22:46:52.236Z,99.90
2023-09-09T22:49:20.253Z,99.90
2023-09-09T22:51:48.289Z,99.90
2023-09-09T22:54:16.246Z,99.90
2023-09-09T22:56:45.604Z,99.90
2023-09-09T22:59:15.088Z,99.90
2023-09-09T23:01:43.569Z,99.90
2023-09-09T23:04:11.945Z,99.90
2023-09-09T23:06:40.174Z,99.90
2023-09-09T23:09:08.088Z,99.90
2023-09-09T23:11:36.017Z,99.90
2023-09-09T23:14:05.432Z,99.90
2023-09-09T23:16:38.415Z,99.90
2023-09-09T23:19:08.058Z,99.90
2023-09-09T23:21:36.327Z,99.90
2023-09-09T23:24:05.032Z,99.90
2023-09-09T23:26:33.573Z,99.90
2023-09-09T23:29:01.784Z,99.90
2023-09-09T23:31:31.128Z,99.90
2023-09-09T23:33:59.165Z,99.90
2023-09-09T23:36:27.229Z,99.90
2023-09-09T23:38:55.395Z,99.90
2023-09-09T23:41:23.512Z,99.90
2023-09-09T23:43:51.471Z,99.90
2023-09-09T23:46:19.654Z,99.90
2023-09-09T23:48:48.932Z,99.90
2023-09-09T23:51:17.111Z,99.90
2023-09-09T23:53:45.379Z,99.90
2023-09-09T23:56:13.957Z,99.90
2023-09-09T23:58:42.070Z,99.90
